createdAt,value
2022-07-29T00:00:55.563Z,41.22
2022-07-29T00:03:24.466Z,41.37
2022-07-29T00:05:54.890Z,41.42
2022-07-29T00:08:24.584Z,41.62
2022-07-29T00:10:54.815Z,41.71
2022-07-29T00:13:32.278Z,41.77
2022-07-29T00:16:04.410Z,41.73
2022-07-29T00:18:34.828Z,41.80
2022-07-29T00:21:03.894Z,41.83
2022-07-29T00:23:36.477Z,42.14
2022-07-29T00:26:06.471Z,42.02
2022-07-29T00:28:35.019Z,41.80
2022-07-29T00:31:03.716Z,41.76
2022-07-29T00:33:33.372Z,41.89
2022-07-29T00:36:02.220Z,42.07
2022-07-29T00:38:31.555Z,42.18
2022-07-29T00:41:01.114Z,42.19
2022-07-29T00:43:30.571Z,42.24
2022-07-29T00:45:59.240Z,42.16
2022-07-29T00:48:30.075Z,42.30
2022-07-29T00:51:00.532Z,42.36
2022-07-29T00:53:31.096Z,42.66
2022-07-29T00:56:00.534Z,42.66
2022-07-29T00:58:29.951Z,42.77
2022-07-29T01:00:59.614Z,42.79
2022-07-29T01:03:28.401Z,42.59
2022-07-29T01:05:57.457Z,42.68
2022-07-29T01:08:27.580Z,42.79
2022-07-29T01:10:56.876Z,43.04
2022-07-29T01:13:27.095Z,43.21
2022-07-29T01:16:05.284Z,43.26
2022-07-29T01:18:39.537Z,43.39
2022-07-29T01:21:46.339Z,43.40
2022-07-29T01:24:38.754Z,43.71
2022-07-29T01:27:45.637Z,43.92
2022-07-29T01:30:15.654Z,43.72
2022-07-29T01:32:49.663Z,43.68
2022-07-29T01:35:39.236Z,44.00
2022-07-29T01:38:15.602Z,44.24
2022-07-29T01:40:55.496Z,44.05
2022-07-29T01:43:39.125Z,44.15
2022-07-29T01:46:13.315Z,44.23
2022-07-29T01:48:59.071Z,44.38
2022-07-29T01:51:34.620Z,44.29
2022-07-29T01:54:22.171Z,44.35
2022-07-29T01:56:53.216Z,44.37
2022-07-29T01:59:23.311Z,44.33
2022-07-29T02:01:55.072Z,44.35
2022-07-29T02:04:29.498Z,44.34
2022-07-29T02:07:06.844Z,44.35
2022-07-29T02:09:38.343Z,44.19
2022-07-29T02:12:08.670Z,44.40
2022-07-29T02:14:46.152Z,44.39
2022-07-29T02:17:17.696Z,44.53
2022-07-29T02:19:48.088Z,44.61
2022-07-29T02:22:18.043Z,44.68
2022-07-29T02:24:50.226Z,44.65
2022-07-29T02:27:21.268Z,44.77
2022-07-29T02:29:53.063Z,44.83
2022-07-29T02:32:23.953Z,44.79
2022-07-29T02:34:54.238Z,44.98
2022-07-29T02:37:24.204Z,45.15
2022-07-29T02:39:55.394Z,45.46
2022-07-29T02:42:28.037Z,45.58
2022-07-29T02:44:57.750Z,45.65
2022-07-29T02:47:41.578Z,45.77
2022-07-29T02:50:17.244Z,45.64
2022-07-29T02:52:56.525Z,45.59
2022-07-29T02:55:47.561Z,45.74
2022-07-29T02:58:30.305Z,45.78
2022-07-29T03:01:21.743Z,45.95
2022-07-29T03:03:55.041Z,46.15
2022-07-29T03:06:37.618Z,45.83
2022-07-29T03:09:13.517Z,46.15
2022-07-29T03:11:49.805Z,46.08
2022-07-29T03:14:21.137Z,46.03
2022-07-29T03:16:51.706Z,46.03
2022-07-29T03:19:21.683Z,46.25
2022-07-29T03:21:50.417Z,46.64
2022-07-29T03:24:50.557Z,46.60
2022-07-29T03:27:19.835Z,46.74
2022-07-29T03:29:50.013Z,46.53
2022-07-29T03:32:23.784Z,46.57
2022-07-29T03:34:54.111Z,46.66
2022-07-29T03:37:23.039Z,46.83
2022-07-29T03:39:53.870Z,46.85
2022-07-29T03:42:31.098Z,47.16
2022-07-29T03:45:09.317Z,46.83
2022-07-29T03:47:50.584Z,46.68
2022-07-29T03:50:23.297Z,46.95
2022-07-29T03:52:52.715Z,46.93
2022-07-29T03:55:21.905Z,47.07
2022-07-29T03:57:52.625Z,47.04
2022-07-29T04:00:21.921Z,46.93
2022-07-29T04:02:50.982Z,46.99
2022-07-29T04:05:21.108Z,47.07
2022-07-29T04:07:50.348Z,47.31
2022-07-29T04:10:26.878Z,47.29
2022-07-29T04:13:01.647Z,47.60
2022-07-29T04:15:31.381Z,47.41
2022-07-29T04:18:00.849Z,47.44
2022-07-29T04:20:30.781Z,47.41
2022-07-29T04:22:59.771Z,47.48
2022-07-29T04:25:28.550Z,47.42
2022-07-29T04:28:04.430Z,47.37
2022-07-29T04:30:35.048Z,47.22
2022-07-29T04:33:06.479Z,47.31
2022-07-29T04:35:38.632Z,47.33
2022-07-29T04:38:15.690Z,47.19
2022-07-29T04:40:46.837Z,47.29
2022-07-29T04:43:17.167Z,47.29
2022-07-29T04:45:51.748Z,47.26
2022-07-29T04:48:25.328Z,47.23
2022-07-29T04:50:58.229Z,47.23
2022-07-29T04:53:29.184Z,47.27
2022-07-29T04:55:58.095Z,47.21
2022-07-29T04:58:27.770Z,47.15
2022-07-29T05:00:58.401Z,47.26
2022-07-29T05:03:27.401Z,47.44
2022-07-29T05:05:56.085Z,47.42
2022-07-29T05:08:25.496Z,47.44
2022-07-29T05:10:54.178Z,47.65
2022-07-29T05:13:23.267Z,47.66
2022-07-29T05:15:52.136Z,47.42
2022-07-29T05:18:21.459Z,47.58
2022-07-29T05:20:55.818Z,47.59
2022-07-29T05:23:24.766Z,47.60
2022-07-29T05:25:53.469Z,47.43
2022-07-29T05:28:22.858Z,47.56
2022-07-29T05:30:51.601Z,47.61
2022-07-29T05:33:35.296Z,47.32
2022-07-29T05:36:09.620Z,47.14
2022-07-29T05:38:38.402Z,47.08
2022-07-29T05:41:07.889Z,47.00
2022-07-29T05:43:36.870Z,46.87
2022-07-29T05:46:05.704Z,46.65
2022-07-29T05:48:34.626Z,46.52
2022-07-29T05:51:03.693Z,46.45
2022-07-29T05:53:32.367Z,46.59
2022-07-29T05:56:05.790Z,46.70
2022-07-29T05:58:34.527Z,46.33
2022-07-29T06:01:04.025Z,46.26
2022-07-29T06:03:32.963Z,46.32
2022-07-29T06:06:01.738Z,45.78
2022-07-29T06:08:30.831Z,45.85
2022-07-29T06:10:59.806Z,45.67
2022-07-29T06:13:28.516Z,45.68
2022-07-29T06:15:57.851Z,45.69
2022-07-29T06:18:28.641Z,45.22
2022-07-29T06:20:57.477Z,45.06
2022-07-29T06:23:26.551Z,45.09
2022-07-29T06:25:55.429Z,45.18
2022-07-29T06:28:24.436Z,44.81
2022-07-29T06:30:53.933Z,44.73
2022-07-29T06:33:22.999Z,44.94
2022-07-29T06:35:53.154Z,44.94
2022-07-29T06:38:31.798Z,44.91
2022-07-29T06:41:03.452Z,44.70
2022-07-29T06:43:35.741Z,44.73
2022-07-29T06:46:21.434Z,44.69
2022-07-29T06:48:53.050Z,44.75
2022-07-29T06:51:23.907Z,44.58
2022-07-29T06:54:00.633Z,44.63
2022-07-29T06:56:43.014Z,44.61
2022-07-29T06:59:13.881Z,44.26
2022-07-29T07:01:44.176Z,44.43
2022-07-29T07:04:15.342Z,44.10
2022-07-29T07:06:44.238Z,44.04
2022-07-29T07:09:12.730Z,44.04
2022-07-29T07:11:42.202Z,44.31
2022-07-29T07:14:10.817Z,44.28
2022-07-29T07:16:39.433Z,44.17
2022-07-29T07:19:09.754Z,44.17
2022-07-29T07:21:38.349Z,44.14
2022-07-29T07:24:07.717Z,44.21
2022-07-29T07:26:37.954Z,44.24
2022-07-29T07:29:07.249Z,44.12
2022-07-29T07:31:36.938Z,44.09
2022-07-29T07:34:06.968Z,44.17
2022-07-29T07:36:35.758Z,43.82
2022-07-29T07:39:06.803Z,43.97
2022-07-29T07:41:35.766Z,43.73
2022-07-29T07:45:12.018Z,43.43
2022-07-29T07:47:12.442Z,42.92
2022-07-29T07:49:41.715Z,42.74
2022-07-29T07:52:10.681Z,42.74
2022-07-29T07:54:39.399Z,42.63
2022-07-29T07:57:08.247Z,42.10
2022-07-29T07:59:36.976Z,41.40
2022-07-29T08:02:06.151Z,41.82
2022-07-29T08:04:40.529Z,42.13
2022-07-29T08:07:11.594Z,41.92
2022-07-29T08:09:40.574Z,41.77
2022-07-29T08:12:10.048Z,41.84
2022-07-29T08:14:39.140Z,41.53
2022-07-29T08:17:07.864Z,41.57
2022-07-29T08:19:36.516Z,41.35
2022-07-29T08:22:07.781Z,41.19
2022-07-29T08:24:47.543Z,41.22
2022-07-29T08:27:41.762Z,40.83
2022-07-29T08:30:05.690Z,40.77
2022-07-29T08:32:53.039Z,40.11
2022-07-29T08:35:26.736Z,39.78
2022-07-29T08:37:58.679Z,39.69
2022-07-29T08:40:32.198Z,39.84
2022-07-29T08:43:09.949Z,40.06
2022-07-29T08:45:56.975Z,39.93
2022-07-29T08:48:26.219Z,39.96
2022-07-29T08:50:57.399Z,39.59
2022-07-29T08:53:28.619Z,39.37
2022-07-29T08:55:58.286Z,39.70
2022-07-29T08:58:32.710Z,39.47
2022-07-29T09:01:36.393Z,39.38
2022-07-29T09:04:13.401Z,39.58
2022-07-29T09:06:49.102Z,39.71
2022-07-29T09:09:18.611Z,39.63
2022-07-29T09:11:48.242Z,39.60
2022-07-29T09:14:16.910Z,39.54
2022-07-29T09:16:59.652Z,39.54
2022-07-29T09:19:36.150Z,39.27
2022-07-29T09:22:10.871Z,39.36
2022-07-29T09:24:45.219Z,39.66
2022-07-29T09:27:27.863Z,39.53
2022-07-29T09:30:07.821Z,39.54
2022-07-29T09:32:55.145Z,39.10
2022-07-29T09:35:26.614Z,38.91
2022-07-29T09:37:56.270Z,38.82
2022-07-29T09:40:29.249Z,38.77
2022-07-29T09:42:58.879Z,38.40
2022-07-29T09:45:34.516Z,38.37
2022-07-29T09:48:20.271Z,38.00
2022-07-29T09:50:52.569Z,37.58
2022-07-29T09:53:41.265Z,37.01
2022-07-29T09:56:14.836Z,37.22
2022-07-29T09:58:44.158Z,37.15
2022-07-29T10:01:17.531Z,37.17
2022-07-29T10:03:55.780Z,36.86
2022-07-29T10:06:26.712Z,36.53
2022-07-29T10:08:56.416Z,36.79
2022-07-29T10:11:48.137Z,36.45
2022-07-29T10:14:31.216Z,36.77
2022-07-29T10:17:02.744Z,36.75
2022-07-29T10:19:32.907Z,36.74
2022-07-29T10:22:04.431Z,36.67
2022-07-29T10:24:36.061Z,36.70
2022-07-29T10:27:08.757Z,36.89
2022-07-29T10:29:38.179Z,36.81
2022-07-29T10:32:34.879Z,36.55
2022-07-29T10:35:11.302Z,36.63
2022-07-29T10:38:18.096Z,36.79
2022-07-29T10:41:32.032Z,36.63
2022-07-29T10:44:19.306Z,36.71
2022-07-29T10:46:53.102Z,36.48
2022-07-29T10:49:30.373Z,36.43
2022-07-29T10:52:08.578Z,36.45
2022-07-29T10:54:42.474Z,36.35
2022-07-29T10:57:12.994Z,36.43
2022-07-29T10:59:43.836Z,36.50
2022-07-29T11:02:41.313Z,36.44
2022-07-29T11:05:23.018Z,36.54
2022-07-29T11:08:19.630Z,36.26
2022-07-29T11:10:50.259Z,36.44
2022-07-29T11:13:52.371Z,36.37
2022-07-29T11:16:25.326Z,36.31
2022-07-29T11:19:13.162Z,36.27
2022-07-29T11:21:54.007Z,36.28
2022-07-29T11:24:30.442Z,36.30
2022-07-29T11:27:14.803Z,36.18
2022-07-29T11:29:53.510Z,36.28
2022-07-29T11:32:24.644Z,36.36
2022-07-29T11:35:27.693Z,36.47
2022-07-29T11:38:28.120Z,36.50
2022-07-29T11:41:27.751Z,36.48
2022-07-29T11:44:02.854Z,36.42
2022-07-29T11:49:48.176Z,36.58
2022-07-29T11:52:17.306Z,36.54
2022-07-29T11:54:58.255Z,36.50
2022-07-29T11:57:37.162Z,36.64
2022-07-29T12:00:14.528Z,36.35
2022-07-29T12:02:48.721Z,36.43
2022-07-29T12:05:35.857Z,36.59
2022-07-29T12:07:03.694Z,36.68
2022-07-29T12:08:20.371Z,36.49
2022-07-29T12:10:52.230Z,36.40
2022-07-29T12:13:23.036Z,36.32
2022-07-29T12:16:07.185Z,36.38
2022-07-29T12:18:35.842Z,36.46
2022-07-29T12:21:06.122Z,36.37
2022-07-29T12:23:35.760Z,36.33
2022-07-29T12:26:10.541Z,36.48
2022-07-29T12:28:40.363Z,36.45
2022-07-29T12:31:43.278Z,36.46
2022-07-29T12:34:09.035Z,36.47
2022-07-29T12:36:38.792Z,36.34
2022-07-29T12:39:07.629Z,36.42
2022-07-29T12:41:40.519Z,36.35
2022-07-29T12:44:09.121Z,36.23
2022-07-29T12:46:38.292Z,36.33
2022-07-29T12:49:08.780Z,36.30
2022-07-29T12:51:40.333Z,36.35
2022-07-29T12:54:14.887Z,36.35
2022-07-29T12:56:45.617Z,36.34
2022-07-29T12:59:23.173Z,36.41
2022-07-29T13:01:54.310Z,36.36
2022-07-29T13:04:31.350Z,36.39
2022-07-29T13:07:02.023Z,36.53
2022-07-29T13:09:39.940Z,36.41
2022-07-29T13:12:13.666Z,36.28
2022-07-29T13:14:45.573Z,36.41
2022-07-29T13:17:17.818Z,36.48
2022-07-29T13:19:47.882Z,36.28
2022-07-29T13:22:19.216Z,36.35
2022-07-29T13:25:04.991Z,36.32
2022-07-29T13:27:37.581Z,36.28
2022-07-29T13:30:11.110Z,36.43
2022-07-29T13:32:40.649Z,36.47
2022-07-29T13:35:11.221Z,36.49
2022-07-29T13:37:39.918Z,36.58
2022-07-29T13:40:10.449Z,36.59
2022-07-29T13:42:40.228Z,36.52
2022-07-29T13:45:10.136Z,36.58
2022-07-29T13:47:40.980Z,36.56
2022-07-29T13:50:11.953Z,36.55
2022-07-29T13:52:40.583Z,36.53
2022-07-29T13:55:09.806Z,36.55
2022-07-29T13:57:39.273Z,36.54
2022-07-29T14:00:08.598Z,36.75
2022-07-29T14:02:38.899Z,36.62
2022-07-29T14:05:09.014Z,36.61
2022-07-29T14:07:40.206Z,36.61
2022-07-29T14:10:10.576Z,36.68
2022-07-29T14:12:39.577Z,36.67
2022-07-29T14:18:05.675Z,36.75
2022-07-29T14:20:58.905Z,36.75
2022-07-29T14:23:56.607Z,36.84
2022-07-29T14:26:26.042Z,36.86
2022-07-29T14:28:56.267Z,36.81
2022-07-29T14:31:24.813Z,36.92
2022-07-29T14:33:53.547Z,36.94
2022-07-29T14:36:22.201Z,36.96
2022-07-29T14:38:51.164Z,36.96
2022-07-29T14:41:19.952Z,37.04
2022-07-29T14:43:48.550Z,37.10
2022-07-29T14:46:17.327Z,37.24
2022-07-29T14:48:46.203Z,37.31
2022-07-29T14:51:14.956Z,37.37
2022-07-29T14:53:43.456Z,37.45
2022-07-29T14:56:35.569Z,37.49
2022-07-29T14:59:02.141Z,37.64
2022-07-29T15:01:31.315Z,37.62
2022-07-29T15:04:01.953Z,37.74
2022-07-29T15:06:30.742Z,37.79
2022-07-29T15:08:59.878Z,37.79
2022-07-29T15:11:28.363Z,37.83
2022-07-29T15:13:57.178Z,37.93
2022-07-29T15:16:26.076Z,37.90
2022-07-29T15:18:54.728Z,37.91
2022-07-29T15:21:23.733Z,38.02
2022-07-29T15:23:52.890Z,38.09
2022-07-29T15:26:21.614Z,38.00
2022-07-29T15:28:51.653Z,38.14
2022-07-29T15:31:21.982Z,38.06
2022-07-29T15:33:56.947Z,38.10
2022-07-29T15:36:50.672Z,38.16
2022-07-29T15:39:15.886Z,38.21
2022-07-29T15:41:44.808Z,38.26
2022-07-29T15:44:13.529Z,38.13
2022-07-29T15:47:01.754Z,38.18
2022-07-29T15:49:48.056Z,38.26
2022-07-29T15:52:25.417Z,38.34
2022-07-29T15:54:57.278Z,38.57
2022-07-29T15:57:26.535Z,38.74
2022-07-29T15:59:55.547Z,38.85
2022-07-29T16:02:24.292Z,39.09
2022-07-29T16:04:53.290Z,39.18
2022-07-29T16:07:22.454Z,39.32
2022-07-29T16:09:53.227Z,39.63
2022-07-29T16:12:25.423Z,39.58
2022-07-29T16:14:54.256Z,39.74
2022-07-29T16:17:23.226Z,39.84
2022-07-29T16:19:53.847Z,39.94
2022-07-29T16:22:22.907Z,40.10
2022-07-29T16:24:51.419Z,40.13
2022-07-29T16:27:25.393Z,40.20
2022-07-29T16:29:57.934Z,40.40
2022-07-29T16:32:27.172Z,40.58
2022-07-29T16:34:55.965Z,41.01
2022-07-29T16:37:24.742Z,41.06
2022-07-29T16:39:57.748Z,41.03
2022-07-29T16:42:45.425Z,40.92
2022-07-29T16:45:17.975Z,41.15
2022-07-29T16:47:48.902Z,41.47
2022-07-29T16:50:19.054Z,41.58
2022-07-29T16:52:47.595Z,41.96
2022-07-29T16:55:16.145Z,41.72
2022-07-29T16:57:46.087Z,41.62
2022-07-29T17:00:16.850Z,41.70
2022-07-29T17:02:56.255Z,41.86
2022-07-29T17:05:52.226Z,41.99
2022-07-29T17:08:41.701Z,42.10
2022-07-29T17:11:53.623Z,42.20
2022-07-29T17:14:44.651Z,42.60
2022-07-29T17:17:38.776Z,42.50
2022-07-29T17:20:29.014Z,42.54
2022-07-29T17:23:26.660Z,42.77
2022-07-29T17:26:21.929Z,42.73
2022-07-29T17:29:25.506Z,42.91
2022-07-29T17:32:18.846Z,43.11
2022-07-29T17:35:28.904Z,42.99
2022-07-29T17:38:28.051Z,43.22
2022-07-29T17:41:12.807Z,43.29
2022-07-29T17:43:42.577Z,43.26
2022-07-29T17:46:14.199Z,43.50
2022-07-29T17:48:44.622Z,43.62
2022-07-29T17:51:13.673Z,43.43
2022-07-29T17:53:42.389Z,43.65
2022-07-29T17:56:11.401Z,43.69
2022-07-29T17:58:41.360Z,43.73
2022-07-29T18:01:11.329Z,44.03
2022-07-29T18:03:41.144Z,44.26
2022-07-29T18:06:14.702Z,44.20
2022-07-29T18:08:48.331Z,44.31
2022-07-29T18:11:17.365Z,44.42
2022-07-29T18:13:46.006Z,44.37
2022-07-29T18:16:15.133Z,44.56
2022-07-29T18:18:45.267Z,44.58
2022-07-29T18:21:13.869Z,44.58
2022-07-29T18:23:42.842Z,44.86
2022-07-29T18:26:12.012Z,44.97
2022-07-29T18:28:40.481Z,45.02
2022-07-29T18:31:09.713Z,44.92
2022-07-29T18:33:40.743Z,45.15
2022-07-29T18:36:11.696Z,45.10
2022-07-29T18:38:41.750Z,45.08
2022-07-29T18:41:11.744Z,45.34
2022-07-29T18:43:40.237Z,45.31
2022-07-29T18:46:09.553Z,45.40
2022-07-29T18:48:39.132Z,45.49
2022-07-29T18:51:09.958Z,45.62
2022-07-29T18:53:42.148Z,45.84
2022-07-29T18:56:11.255Z,45.95
2022-07-29T18:58:40.114Z,46.05
2022-07-29T19:01:09.910Z,46.35
2022-07-29T19:03:42.499Z,46.43
2022-07-29T19:06:12.142Z,46.56
2022-07-29T19:08:40.728Z,46.62
2022-07-29T19:11:10.102Z,46.60
2022-07-29T19:13:39.563Z,46.83
2022-07-29T19:16:12.103Z,46.94
2022-07-29T19:18:41.739Z,46.81
2022-07-29T19:21:11.393Z,46.83
2022-07-29T19:24:01.501Z,46.99
2022-07-29T19:26:29.300Z,47.10
2022-07-29T19:28:58.160Z,47.27
2022-07-29T19:31:26.755Z,47.21
2022-07-29T19:33:55.849Z,47.48
2022-07-29T19:36:27.243Z,47.59
2022-07-29T19:38:55.964Z,47.86
2022-07-29T19:41:25.235Z,47.77
2022-07-29T19:43:54.879Z,47.87
2022-07-29T19:46:24.785Z,48.22
2022-07-29T19:48:54.047Z,48.47
2022-07-29T19:51:24.532Z,48.31
2022-07-29T19:53:53.459Z,48.64
2022-07-29T19:56:30.713Z,48.66
2022-07-29T19:58:59.298Z,48.81
2022-07-29T20:01:28.326Z,48.77
2022-07-29T20:03:57.285Z,49.02
2022-07-29T20:06:27.587Z,48.95
2022-07-29T20:08:58.727Z,49.04
2022-07-29T20:11:30.334Z,49.00
2022-07-29T20:13:59.477Z,49.11
2022-07-29T20:16:28.067Z,49.15
2022-07-29T20:18:56.707Z,49.26
2022-07-29T20:21:27.150Z,49.42
2022-07-29T20:23:58.959Z,49.59
2022-07-29T20:26:28.206Z,49.88
2022-07-29T20:28:56.814Z,49.97
2022-07-29T20:31:25.503Z,50.06
2022-07-29T20:33:54.722Z,50.13
2022-07-29T20:36:23.362Z,50.05
2022-07-29T20:38:52.223Z,50.15
2022-07-29T20:41:21.303Z,50.16
2022-07-29T20:43:53.454Z,50.15
2022-07-29T20:46:23.356Z,50.51
2022-07-29T20:48:54.929Z,50.41
2022-07-29T20:51:24.092Z,50.50
2022-07-29T20:53:52.884Z,50.59
2022-07-29T20:56:21.589Z,50.51
2022-07-29T20:58:51.341Z,50.49
2022-07-29T21:01:20.280Z,50.42
2022-07-29T21:03:48.861Z,50.67
2022-07-29T21:06:18.051Z,50.66
2022-07-29T21:08:46.929Z,50.76
2022-07-29T21:11:15.922Z,50.80
2022-07-29T21:13:46.234Z,51.09
2022-07-29T21:16:15.151Z,51.29
2022-07-29T21:18:46.891Z,51.39
2022-07-29T21:21:17.049Z,51.64
2022-07-29T21:23:46.362Z,51.60
2022-07-29T21:26:16.527Z,51.60
2022-07-29T21:28:45.040Z,51.66
2022-07-29T21:31:15.067Z,51.79
2022-07-29T21:33:46.372Z,51.86
2022-07-29T21:39:07.704Z,52.04
2022-07-29T21:41:36.831Z,52.11
2022-07-29T21:44:05.442Z,52.29
2022-07-29T21:46:34.081Z,52.30
2022-07-29T21:49:03.349Z,52.32
2022-07-29T21:51:31.771Z,52.56
2022-07-29T21:54:00.474Z,52.76
2022-07-29T21:56:29.917Z,52.79
2022-07-29T21:59:00.462Z,52.86
2022-07-29T22:01:29.226Z,53.03
2022-07-29T22:04:08.994Z,53.09
2022-07-29T22:06:37.811Z,53.22
2022-07-29T22:09:06.450Z,53.35
2022-07-29T22:11:37.205Z,53.49
2022-07-29T22:14:08.074Z,53.40
2022-07-29T22:16:37.221Z,53.45
2022-07-29T22:19:05.983Z,53.38
2022-07-29T22:21:34.945Z,53.46
2022-07-29T22:24:03.989Z,53.60
2022-07-29T22:26:33.773Z,53.51
2022-07-29T22:29:02.669Z,53.52
2022-07-29T22:31:32.147Z,53.62
2022-07-29T22:34:00.955Z,53.68
2022-07-29T22:36:29.646Z,53.83
2022-07-29T22:38:58.810Z,53.85
2022-07-29T22:41:27.406Z,53.85
2022-07-29T22:43:55.954Z,54.09
2022-07-29T22:46:25.217Z,54.08
2022-07-29T22:48:54.267Z,54.01
2022-07-29T22:51:23.183Z,54.11
2022-07-29T22:53:52.646Z,54.12
2022-07-29T22:56:21.729Z,54.27
2022-07-29T22:58:50.561Z,54.27
2022-07-29T23:01:37.586Z,54.31
2022-07-29T23:04:07.618Z,54.53
2022-07-29T23:06:36.852Z,54.51
2022-07-29T23:09:05.541Z,54.55
2022-07-29T23:11:34.399Z,54.54
2022-07-29T23:14:03.182Z,54.70
2022-07-29T23:16:31.771Z,54.63
2022-07-29T23:19:02.003Z,54.87
2022-07-29T23:21:30.986Z,55.05
2022-07-29T23:23:59.565Z,55.33
2022-07-29T23:26:28.565Z,55.22
2022-07-29T23:28:57.300Z,55.34
2022-07-29T23:31:26.035Z,55.45
2022-07-29T23:33:54.879Z,55.56
2022-07-29T23:36:24.218Z,55.44
2022-07-29T23:38:52.844Z,55.34
2022-07-29T23:41:24.249Z,55.35
2022-07-29T23:43:53.383Z,55.35
2022-07-29T23:46:24.002Z,55.42
2022-07-29T23:48:52.913Z,55.45
2022-07-29T23:51:22.189Z,55.54
2022-07-29T23:53:53.279Z,55.64
2022-07-29T23:56:23.867Z,55.67
2022-07-29T23:58:52.377Z,55.74
